createdAt,value
2023-01-17T00:00:04.216Z,977.2
2023-01-17T00:01:04.288Z,977.2
2023-01-17T00:02:04.385Z,977.2
2023-01-17T00:03:04.794Z,977.1
2023-01-17T00:04:04.231Z,977.1
2023-01-17T00:05:04.184Z,977.1
2023-01-17T00:06:04.153Z,977.1
2023-01-17T00:07:04.177Z,977.1
2023-01-17T00:08:04.215Z,977.1
2023-01-17T00:09:04.289Z,977.1
2023-01-17T00:10:04.173Z,977.1
2023-01-17T00:11:04.261Z,977.1
2023-01-17T00:12:04.233Z,977.1
2023-01-17T00:13:04.192Z,977.2
2023-01-17T00:14:04.231Z,977.2
2023-01-17T00:15:04.268Z,977.3
2023-01-17T00:16:04.264Z,977.3
2023-01-17T00:17:04.181Z,977.3
2023-01-17T00:18:04.193Z,977.3
2023-01-17T00:19:04.240Z,977.4
2023-01-17T00:20:04.479Z,977.4
2023-01-17T00:21:04.297Z,977.4
2023-01-17T00:22:04.227Z,977.4
2023-01-17T00:23:04.163Z,977.3
2023-01-17T00:24:04.533Z,977.5
2023-01-17T00:25:04.095Z,977.4
2023-01-17T00:26:04.218Z,977.4
2023-01-17T00:27:04.261Z,977.4
2023-01-17T00:28:04.147Z,977.4
2023-01-17T00:29:04.460Z,977.5
2023-01-17T00:30:04.228Z,977.5
2023-01-17T00:31:04.494Z,977.5
2023-01-17T00:32:04.225Z,977.4
2023-01-17T00:33:04.194Z,977.4
2023-01-17T00:34:04.503Z,977.6
2023-01-17T00:35:04.207Z,977.5
2023-01-17T00:36:04.222Z,977.5
2023-01-17T00:37:04.411Z,977.5
2023-01-17T00:38:04.147Z,977.6
2023-01-17T00:39:04.133Z,977.6
2023-01-17T00:40:04.137Z,977.6
2023-01-17T00:41:04.104Z,977.6
2023-01-17T00:42:04.139Z,977.6
2023-01-17T00:43:04.125Z,977.6
2023-01-17T00:44:04.150Z,977.7
2023-01-17T00:45:04.136Z,977.7
2023-01-17T00:46:04.168Z,977.7
2023-01-17T00:47:04.106Z,977.7
2023-01-17T00:48:04.120Z,977.8
2023-01-17T00:49:04.113Z,977.8
2023-01-17T00:51:21.228Z,977.8
2023-01-17T00:51:25.271Z,977.8
2023-01-17T00:52:04.148Z,977.8
2023-01-17T00:53:04.108Z,977.9
2023-01-17T00:54:04.153Z,977.9
2023-01-17T00:55:04.117Z,977.9
2023-01-17T00:56:04.128Z,978.0
2023-01-17T00:57:04.150Z,978.0
2023-01-17T00:58:04.151Z,978.0
2023-01-17T00:59:04.107Z,978.0
2023-01-17T01:00:04.130Z,978.1
2023-01-17T01:01:04.206Z,978.1
2023-01-17T01:02:04.251Z,978.1
2023-01-17T01:03:04.143Z,978.1
2023-01-17T01:04:04.139Z,978.2
2023-01-17T01:05:04.108Z,978.1
2023-01-17T01:06:04.145Z,978.2
2023-01-17T01:07:04.112Z,978.2
2023-01-17T01:08:04.411Z,978.2
2023-01-17T01:09:04.158Z,978.2
2023-01-17T01:10:04.136Z,978.2
2023-01-17T01:11:04.108Z,978.2
2023-01-17T01:12:04.143Z,978.2
2023-01-17T01:13:04.113Z,978.1
2023-01-17T01:14:04.162Z,978.1
2023-01-17T01:15:04.165Z,978.2
2023-01-17T01:16:04.156Z,978.2
2023-01-17T01:17:04.119Z,978.3
2023-01-17T01:18:04.180Z,978.2
2023-01-17T01:19:04.122Z,978.2
2023-01-17T01:20:04.199Z,978.3
2023-01-17T01:21:04.166Z,978.4
2023-01-17T01:22:04.132Z,978.3
2023-01-17T01:23:04.129Z,978.3
2023-01-17T01:24:04.157Z,978.3
2023-01-17T01:25:04.112Z,978.4
2023-01-17T01:26:04.167Z,978.4
2023-01-17T01:27:04.177Z,978.4
2023-01-17T01:28:04.158Z,978.4
2023-01-17T01:29:04.119Z,978.4
2023-01-17T01:30:04.134Z,978.4
2023-01-17T01:31:04.121Z,978.4
2023-01-17T01:32:04.146Z,978.5
2023-01-17T01:33:04.158Z,978.5
2023-01-17T01:34:04.140Z,978.5
2023-01-17T01:35:04.140Z,978.5
2023-01-17T01:36:04.151Z,978.5
2023-01-17T01:37:04.155Z,978.6
2023-01-17T01:38:04.155Z,978.6
2023-01-17T01:39:04.164Z,978.6
2023-01-17T01:40:04.152Z,978.6
2023-01-17T01:41:04.129Z,978.6
2023-01-17T01:42:04.141Z,978.6
2023-01-17T01:43:04.144Z,978.6
2023-01-17T01:44:04.175Z,978.6
2023-01-17T01:45:04.155Z,978.6
2023-01-17T01:46:04.182Z,978.7
2023-01-17T01:47:04.135Z,978.7
2023-01-17T01:48:04.183Z,978.7
2023-01-17T01:49:04.136Z,978.8
2023-01-17T01:50:04.155Z,978.8
2023-01-17T01:51:04.165Z,978.8
2023-01-17T01:52:04.145Z,978.8
2023-01-17T01:53:04.121Z,978.8
2023-01-17T01:54:04.167Z,978.8
2023-01-17T01:55:04.125Z,978.8
2023-01-17T01:56:04.184Z,978.9
2023-01-17T01:57:04.154Z,978.8
2023-01-17T01:58:04.168Z,978.8
2023-01-17T01:59:04.141Z,978.9
2023-01-17T02:00:05.191Z,978.9
2023-01-17T02:01:04.229Z,978.9
2023-01-17T02:02:04.209Z,978.9
2023-01-17T02:03:04.280Z,978.8
2023-01-17T02:04:04.170Z,978.8
2023-01-17T02:05:04.881Z,978.8
2023-01-17T02:06:04.161Z,978.8
2023-01-17T02:07:04.142Z,978.8
2023-01-17T02:08:04.171Z,978.8
2023-01-17T02:09:04.199Z,978.8
2023-01-17T02:10:04.183Z,978.8
2023-01-17T02:11:04.157Z,978.9
2023-01-17T02:12:04.160Z,978.8
2023-01-17T02:13:04.143Z,978.9
2023-01-17T02:15:57.294Z,978.9
2023-01-17T02:16:04.727Z,979.0
2023-01-17T02:17:04.037Z,979.0
2023-01-17T02:18:04.062Z,979.0
2023-01-17T02:19:04.048Z,979.0
2023-01-17T02:20:04.083Z,979.0
2023-01-17T02:21:04.084Z,979.0
2023-01-17T02:22:04.066Z,979.0
2023-01-17T02:23:04.044Z,979.0
2023-01-17T02:24:04.067Z,979.0
2023-01-17T02:25:04.046Z,979.0
2023-01-17T02:26:04.063Z,979.0
2023-01-17T02:27:04.080Z,979.0
2023-01-17T02:28:04.084Z,979.0
2023-01-17T02:29:04.039Z,979.0
2023-01-17T02:30:04.087Z,978.9
2023-01-17T02:31:04.035Z,978.9
2023-01-17T02:32:04.074Z,978.9
2023-01-17T02:33:04.098Z,978.9
2023-01-17T02:34:04.090Z,978.9
2023-01-17T02:35:04.037Z,978.9
2023-01-17T02:36:04.057Z,978.9
2023-01-17T02:37:04.068Z,979.0
2023-01-17T02:38:04.068Z,978.9
2023-01-17T02:39:04.077Z,978.9
2023-01-17T02:40:04.070Z,978.9
2023-01-17T02:41:04.059Z,978.9
2023-01-17T02:42:04.072Z,978.9
2023-01-17T02:43:04.042Z,978.9
2023-01-17T02:44:04.105Z,978.9
2023-01-17T02:45:04.081Z,978.9
2023-01-17T02:46:04.122Z,978.9
2023-01-17T02:47:04.038Z,979.0
2023-01-17T02:48:04.070Z,978.9
2023-01-17T02:49:04.052Z,978.9
2023-01-17T02:50:04.076Z,979.0
2023-01-17T02:51:04.080Z,978.9
2023-01-17T02:52:04.090Z,978.9
2023-01-17T02:53:04.054Z,978.9
2023-01-17T02:54:04.070Z,978.9
2023-01-17T02:55:04.059Z,979.0
2023-01-17T02:56:04.100Z,979.0
2023-01-17T02:57:04.101Z,979.0
2023-01-17T02:58:04.071Z,979.0
2023-01-17T02:59:04.062Z,979.0
2023-01-17T03:00:04.070Z,979.0
2023-01-17T03:01:04.157Z,979.0
2023-01-17T03:02:04.216Z,979.0
2023-01-17T03:03:04.098Z,979.0
2023-01-17T03:04:04.083Z,979.0
2023-01-17T03:05:04.155Z,979.0
2023-01-17T03:06:04.099Z,979.0
2023-01-17T03:07:04.050Z,979.0
2023-01-17T03:08:04.067Z,979.0
2023-01-17T03:09:04.076Z,979.0
2023-01-17T03:10:04.069Z,979.0
2023-01-17T03:11:04.055Z,979.0
2023-01-17T03:12:04.082Z,979.0
2023-01-17T03:13:04.058Z,979.0
2023-01-17T03:14:04.076Z,979.0
2023-01-17T03:15:04.084Z,979.0
2023-01-17T03:16:04.081Z,979.0
2023-01-17T03:17:04.072Z,979.0
2023-01-17T03:18:04.081Z,979.0
2023-01-17T03:19:04.044Z,979.0
2023-01-17T03:20:04.081Z,979.0
2023-01-17T03:21:04.090Z,979.0
2023-01-17T03:22:04.079Z,979.0
2023-01-17T03:23:04.057Z,979.0
2023-01-17T03:24:04.096Z,979.0
2023-01-17T03:25:04.062Z,979.0
2023-01-17T03:26:04.083Z,979.0
2023-01-17T03:27:04.101Z,979.0
2023-01-17T03:28:04.081Z,979.0
2023-01-17T03:29:04.093Z,979.0
2023-01-17T03:30:04.054Z,979.0
2023-01-17T03:31:04.119Z,979.0
2023-01-17T03:32:04.070Z,979.0
2023-01-17T03:33:04.155Z,979.1
2023-01-17T03:34:04.062Z,979.1
2023-01-17T03:35:04.081Z,979.1
2023-01-17T03:36:04.058Z,979.1
2023-01-17T03:37:04.084Z,979.1
2023-01-17T03:38:04.071Z,979.1
2023-01-17T03:39:04.121Z,979.1
2023-01-17T03:40:04.053Z,979.1
2023-01-17T03:41:04.079Z,979.1
2023-01-17T03:42:04.081Z,979.1
2023-01-17T03:43:04.081Z,979.1
2023-01-17T03:44:04.065Z,979.2
2023-01-17T03:45:04.111Z,979.1
2023-01-17T03:46:04.122Z,979.1
2023-01-17T03:47:04.086Z,979.0
2023-01-17T03:48:04.072Z,979.1
2023-01-17T03:49:04.084Z,979.0
2023-01-17T03:50:04.084Z,979.0
2023-01-17T03:51:04.092Z,979.1
2023-01-17T03:52:04.106Z,979.0
2023-01-17T03:53:04.090Z,979.1
2023-01-17T03:54:04.062Z,979.1
2023-01-17T03:55:04.084Z,979.1
2023-01-17T03:56:04.106Z,979.1
2023-01-17T03:57:04.118Z,979.1
2023-01-17T03:58:04.068Z,979.2
2023-01-17T03:59:04.100Z,979.2
2023-01-17T04:00:04.061Z,979.2
2023-01-17T04:01:04.257Z,979.2
2023-01-17T04:02:04.206Z,979.2
2023-01-17T04:03:04.103Z,979.2
2023-01-17T04:04:04.073Z,979.3
2023-01-17T04:05:04.081Z,979.3
2023-01-17T04:06:04.061Z,979.3
2023-01-17T04:07:04.089Z,979.3
2023-01-17T04:08:04.105Z,979.3
2023-01-17T04:09:04.126Z,979.3
2023-01-17T04:10:04.067Z,979.3
2023-01-17T04:11:04.109Z,979.3
2023-01-17T04:12:04.082Z,979.3
2023-01-17T04:13:04.098Z,979.4
2023-01-17T04:14:04.121Z,979.4
2023-01-17T04:15:04.238Z,979.4
2023-01-17T04:16:04.066Z,979.3
2023-01-17T04:17:04.106Z,979.4
2023-01-17T04:18:04.074Z,979.4
2023-01-17T04:19:04.082Z,979.3
2023-01-17T04:20:04.116Z,979.3
2023-01-17T04:21:04.095Z,979.4
2023-01-17T04:22:04.083Z,979.3
2023-01-17T04:23:04.112Z,979.4
2023-01-17T04:24:04.079Z,979.4
2023-01-17T04:25:04.099Z,979.4
2023-01-17T04:26:04.095Z,979.4
2023-01-17T04:27:04.100Z,979.4
2023-01-17T04:28:04.153Z,979.4
2023-01-17T04:29:04.213Z,979.4
2023-01-17T04:30:04.210Z,979.4
2023-01-17T04:31:04.266Z,979.4
2023-01-17T04:32:04.189Z,979.4
2023-01-17T04:33:04.233Z,979.4
2023-01-17T04:34:04.195Z,979.3
2023-01-17T04:35:04.133Z,979.3
2023-01-17T04:36:04.087Z,979.4
2023-01-17T04:37:04.097Z,979.3
2023-01-17T04:38:04.137Z,979.4
2023-01-17T04:39:04.127Z,979.4
2023-01-17T04:40:04.095Z,979.4
2023-01-17T04:41:04.115Z,979.4
2023-01-17T04:42:04.267Z,979.4
2023-01-17T04:43:04.127Z,979.4
2023-01-17T04:44:04.135Z,979.4
2023-01-17T04:45:04.225Z,979.5
2023-01-17T04:46:04.129Z,979.4
2023-01-17T04:47:04.142Z,979.5
2023-01-17T04:48:04.091Z,979.5
2023-01-17T04:49:04.119Z,979.5
2023-01-17T04:50:04.116Z,979.5
2023-01-17T04:51:04.102Z,979.5
2023-01-17T04:52:04.125Z,979.5
2023-01-17T04:53:04.159Z,979.5
2023-01-17T04:54:04.086Z,979.5
2023-01-17T04:55:04.118Z,979.5
2023-01-17T04:56:04.120Z,979.5
2023-01-17T04:57:04.133Z,979.5
2023-01-17T04:58:04.134Z,979.5
2023-01-17T04:59:04.105Z,979.6
2023-01-17T05:01:38.335Z,979.5
2023-01-17T05:02:04.294Z,979.6
2023-01-17T05:03:04.253Z,979.5
2023-01-17T05:04:04.226Z,979.6
2023-01-17T05:05:04.255Z,979.6
2023-01-17T05:06:04.230Z,979.6
2023-01-17T05:07:04.323Z,979.5
2023-01-17T05:08:04.354Z,979.6
2023-01-17T05:09:04.254Z,979.6
2023-01-17T05:10:04.216Z,979.6
2023-01-17T05:11:04.260Z,979.7
2023-01-17T05:12:04.231Z,979.6
2023-01-17T05:13:04.277Z,979.7
2023-01-17T05:14:04.246Z,979.7
2023-01-17T05:15:05.556Z,979.7
2023-01-17T05:16:04.242Z,979.6
2023-01-17T05:17:04.269Z,979.6
2023-01-17T05:18:04.225Z,979.7
2023-01-17T05:19:04.280Z,979.7
2023-01-17T05:20:04.235Z,979.7
2023-01-17T05:21:04.259Z,979.6
2023-01-17T05:22:04.413Z,979.7
2023-01-17T05:23:04.283Z,979.7
2023-01-17T05:24:04.230Z,979.8
2023-01-17T05:25:04.245Z,979.8
2023-01-17T05:26:04.229Z,979.8
2023-01-17T05:27:04.266Z,979.7
2023-01-17T05:28:04.254Z,979.7
2023-01-17T05:29:04.297Z,979.8
2023-01-17T05:30:04.250Z,979.7
2023-01-17T05:31:04.296Z,979.7
2023-01-17T05:32:04.224Z,979.7
2023-01-17T05:33:04.250Z,979.6
2023-01-17T05:34:04.239Z,979.6
2023-01-17T05:35:04.291Z,979.7
2023-01-17T05:36:04.239Z,979.6
2023-01-17T05:37:04.255Z,979.6
2023-01-17T05:38:04.245Z,979.6
2023-01-17T05:39:04.252Z,979.6
2023-01-17T05:40:04.245Z,979.6
2023-01-17T05:41:04.300Z,979.6
2023-01-17T05:42:04.223Z,979.6
2023-01-17T05:43:04.258Z,979.6
2023-01-17T05:44:04.236Z,979.6
2023-01-17T05:45:04.264Z,979.6
2023-01-17T05:46:04.277Z,979.6
2023-01-17T05:47:04.293Z,979.6
2023-01-17T05:48:04.240Z,979.6
2023-01-17T05:49:04.274Z,979.6
2023-01-17T05:50:04.236Z,979.6
2023-01-17T05:51:04.275Z,979.7
2023-01-17T05:52:04.233Z,979.8
2023-01-17T05:53:04.305Z,979.7
2023-01-17T05:54:04.268Z,979.7
2023-01-17T05:55:04.258Z,979.7
2023-01-17T05:56:04.256Z,979.7
2023-01-17T05:58:35.334Z,979.6
2023-01-17T05:59:03.888Z,979.7
2023-01-17T06:00:03.885Z,979.7
2023-01-17T06:01:03.883Z,979.6
2023-01-17T06:02:03.861Z,979.7
2023-01-17T06:03:03.827Z,979.6
2023-01-17T06:04:03.897Z,979.6
2023-01-17T06:05:03.826Z,979.6
2023-01-17T06:06:03.867Z,979.6
2023-01-17T06:07:03.823Z,979.6
2023-01-17T06:08:03.858Z,979.6
2023-01-17T06:09:03.828Z,979.6
2023-01-17T06:10:03.873Z,979.6
2023-01-17T06:11:03.838Z,979.6
2023-01-17T06:12:03.847Z,979.6
2023-01-17T06:13:03.824Z,979.6
2023-01-17T06:14:03.845Z,979.6
2023-01-17T06:15:03.826Z,979.6
2023-01-17T06:16:03.926Z,979.6
2023-01-17T06:17:03.841Z,979.6
2023-01-17T06:18:03.863Z,979.6
2023-01-17T06:19:03.866Z,979.6
2023-01-17T06:20:03.914Z,979.6
2023-01-17T06:21:03.828Z,979.6
2023-01-17T06:22:03.881Z,979.6
2023-01-17T06:23:03.838Z,979.6
2023-01-17T06:24:04.375Z,979.6
2023-01-17T06:25:03.837Z,979.6
2023-01-17T06:26:03.860Z,979.6
2023-01-17T06:27:03.880Z,979.6
2023-01-17T06:28:03.858Z,979.6
2023-01-17T06:29:03.866Z,979.6
2023-01-17T06:30:03.850Z,979.6
2023-01-17T06:31:03.897Z,979.6
2023-01-17T06:32:03.843Z,979.6
2023-01-17T06:33:03.901Z,979.6
2023-01-17T06:34:03.890Z,979.6
2023-01-17T06:35:03.865Z,979.6
2023-01-17T06:36:03.833Z,979.6
2023-01-17T06:37:03.870Z,979.6
2023-01-17T06:38:03.836Z,979.6
2023-01-17T06:39:03.868Z,979.6
2023-01-17T06:40:03.869Z,979.6
2023-01-17T06:41:03.869Z,979.6
2023-01-17T06:42:03.847Z,979.6
2023-01-17T06:43:03.855Z,979.6
2023-01-17T06:44:03.837Z,979.6
2023-01-17T06:45:03.861Z,979.6
2023-01-17T06:46:03.897Z,979.6
2023-01-17T06:47:03.906Z,979.5
2023-01-17T06:48:03.885Z,979.6
2023-01-17T06:49:03.866Z,979.5
2023-01-17T06:50:03.844Z,979.5
2023-01-17T06:51:03.860Z,979.5
2023-01-17T06:52:05.916Z,979.5
2023-01-17T06:53:03.912Z,979.5
2023-01-17T06:54:03.856Z,979.5
2023-01-17T06:55:03.879Z,979.5
2023-01-17T06:56:03.839Z,979.5
2023-01-17T06:57:03.864Z,979.5
2023-01-17T06:58:03.868Z,979.5
2023-01-17T06:59:03.868Z,979.5
2023-01-17T07:00:03.849Z,979.5
2023-01-17T07:01:03.931Z,979.5
2023-01-17T07:02:03.848Z,979.5
2023-01-17T07:03:03.871Z,979.5
2023-01-17T07:04:03.890Z,979.5
2023-01-17T07:05:03.865Z,979.5
2023-01-17T07:06:03.875Z,979.5
2023-01-17T07:07:03.872Z,979.5
2023-01-17T07:08:04.920Z,979.5
2023-01-17T07:09:03.875Z,979.5
2023-01-17T07:10:03.878Z,979.5
2023-01-17T07:11:03.863Z,979.5
2023-01-17T07:12:03.848Z,979.5
2023-01-17T07:13:03.872Z,979.5
2023-01-17T07:14:03.857Z,979.5
2023-01-17T07:15:03.872Z,979.5
2023-01-17T07:16:04.063Z,979.5
2023-01-17T07:17:03.873Z,979.5
2023-01-17T07:18:03.860Z,979.5
2023-01-17T07:19:03.885Z,979.5
2023-01-17T07:20:03.862Z,979.5
2023-01-17T07:21:03.901Z,979.5
2023-01-17T07:22:03.876Z,979.4
2023-01-17T07:23:03.870Z,979.4
2023-01-17T07:24:03.866Z,979.4
2023-01-17T07:25:03.869Z,979.4
2023-01-17T07:26:03.876Z,979.3
2023-01-17T07:27:03.886Z,979.4
2023-01-17T07:28:04.154Z,979.3
2023-01-17T07:29:03.895Z,979.3
2023-01-17T07:30:03.874Z,979.3
2023-01-17T07:31:03.924Z,979.3
2023-01-17T07:32:03.858Z,979.3
2023-01-17T07:33:03.880Z,979.3
2023-01-17T07:34:03.873Z,979.4
2023-01-17T07:35:03.882Z,979.3
2023-01-17T07:36:03.849Z,979.4
2023-01-17T07:37:03.876Z,979.4
2023-01-17T07:38:03.864Z,979.3
2023-01-17T07:39:06.225Z,979.3
2023-01-17T07:40:03.913Z,979.3
2023-01-17T07:41:03.889Z,979.3
2023-01-17T07:42:03.860Z,979.3
2023-01-17T07:43:03.876Z,979.3
2023-01-17T07:44:03.862Z,979.2
2023-01-17T07:45:03.887Z,979.2
2023-01-17T07:46:03.892Z,979.2
2023-01-17T07:47:03.881Z,979.2
2023-01-17T07:48:03.850Z,979.2
2023-01-17T07:49:03.877Z,979.2
2023-01-17T07:50:03.878Z,979.2
2023-01-17T07:51:03.897Z,979.2
2023-01-17T07:52:03.876Z,979.2
2023-01-17T07:53:03.890Z,979.2
2023-01-17T07:54:03.848Z,979.1
2023-01-17T07:55:04.055Z,979.1
2023-01-17T07:56:03.898Z,979.1
2023-01-17T07:57:03.890Z,979.0
2023-01-17T07:58:03.888Z,979.0
2023-01-17T07:59:04.022Z,979.0
2023-01-17T08:00:03.974Z,979.0
2023-01-17T08:01:04.031Z,979.0
2023-01-17T08:02:03.900Z,979.0
2023-01-17T08:03:03.921Z,978.9
2023-01-17T08:04:04.081Z,978.9
2023-01-17T08:05:03.894Z,978.8
2023-01-17T08:06:03.958Z,978.9
2023-01-17T08:07:03.927Z,978.8
2023-01-17T08:08:03.871Z,978.8
2023-01-17T08:09:03.894Z,978.8
2023-01-17T08:10:03.908Z,978.9
2023-01-17T08:11:03.906Z,978.8
2023-01-17T08:12:03.863Z,978.8
2023-01-17T08:13:03.899Z,978.8
2023-01-17T08:14:03.912Z,978.8
2023-01-17T08:15:03.979Z,978.7
2023-01-17T08:16:03.969Z,978.8
2023-01-17T08:17:03.885Z,978.7
2023-01-17T08:18:04.190Z,978.7
2023-01-17T08:19:03.933Z,978.7
2023-01-17T08:20:03.894Z,978.7
2023-01-17T08:21:03.890Z,978.7
2023-01-17T08:22:03.899Z,978.7
2023-01-17T08:23:03.896Z,978.7
2023-01-17T08:24:03.871Z,978.7
2023-01-17T08:25:03.903Z,978.7
2023-01-17T08:26:03.880Z,978.7
2023-01-17T08:27:03.895Z,978.7
2023-01-17T08:28:03.895Z,978.7
2023-01-17T08:29:03.921Z,978.8
2023-01-17T08:30:03.924Z,978.8
2023-01-17T08:31:03.897Z,978.8
2023-01-17T08:32:03.868Z,978.8
2023-01-17T08:33:03.902Z,978.8
2023-01-17T08:34:03.881Z,978.8
2023-01-17T08:35:03.900Z,978.8
2023-01-17T08:36:03.901Z,978.8
2023-01-17T08:37:04.164Z,978.8
2023-01-17T08:38:03.961Z,978.9
2023-01-17T08:39:03.910Z,978.9
2023-01-17T08:40:03.882Z,978.9
2023-01-17T08:41:03.907Z,978.9
2023-01-17T08:42:03.950Z,978.9
2023-01-17T08:43:03.907Z,978.9
2023-01-17T08:44:03.907Z,978.9
2023-01-17T08:46:43.327Z,978.9
2023-01-17T08:46:47.447Z,978.8
2023-01-17T08:47:03.902Z,978.8
2023-01-17T08:48:03.955Z,978.9
2023-01-17T08:49:04.129Z,978.9
2023-01-17T08:50:03.889Z,978.9
2023-01-17T08:51:03.916Z,978.9
2023-01-17T08:52:03.871Z,978.9
2023-01-17T08:53:03.918Z,978.9
2023-01-17T08:54:03.923Z,978.9
2023-01-17T08:55:03.931Z,978.9
2023-01-17T08:56:03.875Z,978.9
2023-01-17T08:57:03.923Z,978.9
2023-01-17T08:58:03.882Z,978.8
2023-01-17T08:59:03.947Z,978.9
2023-01-17T09:00:03.932Z,978.9
2023-01-17T09:01:04.017Z,978.9
2023-01-17T09:02:03.990Z,978.9
2023-01-17T09:03:03.907Z,978.9
2023-01-17T09:04:03.918Z,978.9
2023-01-17T09:05:03.897Z,978.9
2023-01-17T09:06:03.947Z,978.9
2023-01-17T09:07:03.910Z,978.9
2023-01-17T09:08:03.879Z,978.9
2023-01-17T09:09:04.051Z,978.9
2023-01-17T09:10:04.957Z,979.0
2023-01-17T09:11:03.918Z,979.0
2023-01-17T09:12:03.935Z,978.9
2023-01-17T09:13:03.915Z,979.0
2023-01-17T09:14:03.895Z,979.0
2023-01-17T09:15:03.909Z,979.0
2023-01-17T09:16:03.907Z,979.0
2023-01-17T09:17:03.908Z,979.1
2023-01-17T09:18:03.924Z,979.1
2023-01-17T09:19:03.937Z,979.1
2023-01-17T09:20:03.888Z,979.1
2023-01-17T09:21:03.962Z,979.1
2023-01-17T09:22:03.894Z,979.1
2023-01-17T09:23:03.944Z,979.1
2023-01-17T09:24:03.923Z,979.1
2023-01-17T09:25:03.932Z,979.1
2023-01-17T09:26:03.895Z,979.1
2023-01-17T09:27:03.924Z,979.1
2023-01-17T09:28:03.892Z,979.1
2023-01-17T09:29:03.909Z,979.1
2023-01-17T09:30:03.912Z,979.1
2023-01-17T09:31:04.034Z,979.2
2023-01-17T09:32:03.886Z,979.1
2023-01-17T09:33:03.937Z,979.1
2023-01-17T09:34:03.950Z,979.1
2023-01-17T09:35:03.920Z,979.2
2023-01-17T09:36:03.893Z,979.2
2023-01-17T09:37:03.940Z,979.2
2023-01-17T09:38:03.911Z,979.2
2023-01-17T09:39:03.908Z,979.2
2023-01-17T09:40:03.900Z,979.2
2023-01-17T09:41:03.950Z,979.2
2023-01-17T09:42:03.898Z,979.2
2023-01-17T09:43:03.959Z,979.2
2023-01-17T09:44:03.918Z,979.2
2023-01-17T09:45:03.944Z,979.2
2023-01-17T09:46:03.951Z,979.2
2023-01-17T09:47:03.948Z,979.2
2023-01-17T09:48:03.886Z,979.2
2023-01-17T09:50:54.756Z,979.2
2023-01-17T09:51:03.846Z,979.2
2023-01-17T09:52:03.820Z,979.2
2023-01-17T09:53:03.841Z,979.2
2023-01-17T09:54:03.830Z,979.2
2023-01-17T09:55:03.884Z,979.2
2023-01-17T09:56:03.830Z,979.2
2023-01-17T09:57:03.904Z,979.2
2023-01-17T09:58:03.819Z,979.2
2023-01-17T09:59:03.850Z,979.2
2023-01-17T10:00:04.194Z,979.2
2023-01-17T10:01:04.010Z,979.2
2023-01-17T10:02:04.028Z,979.2
2023-01-17T10:03:03.899Z,979.2
2023-01-17T10:04:03.858Z,979.2
2023-01-17T10:05:03.930Z,979.2
2023-01-17T10:06:03.825Z,979.3
2023-01-17T10:07:03.885Z,979.3
2023-01-17T10:08:04.618Z,979.3
2023-01-17T10:09:03.930Z,979.2
2023-01-17T10:10:03.819Z,979.2
2023-01-17T10:11:03.841Z,979.2
2023-01-17T10:12:04.075Z,979.3
2023-01-17T10:13:03.875Z,979.3
2023-01-17T10:14:03.819Z,979.3
2023-01-17T10:15:03.850Z,979.3
2023-01-17T10:16:03.878Z,979.3
2023-01-17T10:17:03.876Z,979.3
2023-01-17T10:18:03.831Z,979.3
2023-01-17T10:19:03.894Z,979.3
2023-01-17T10:20:03.850Z,979.3
2023-01-17T10:21:03.843Z,979.3
2023-01-17T10:22:03.861Z,979.3
2023-01-17T10:23:03.854Z,979.2
2023-01-17T10:24:03.828Z,979.2
2023-01-17T10:25:03.874Z,979.2
2023-01-17T10:26:03.825Z,979.2
2023-01-17T10:27:03.858Z,979.2
2023-01-17T10:28:03.848Z,979.2
2023-01-17T10:29:03.855Z,979.2
2023-01-17T10:30:03.820Z,979.2
2023-01-17T10:31:03.915Z,979.2
2023-01-17T10:32:03.896Z,979.2
2023-01-17T10:33:03.882Z,979.2
2023-01-17T10:34:03.886Z,979.2
2023-01-17T10:35:03.850Z,979.2
2023-01-17T10:36:03.939Z,979.1
2023-01-17T10:37:03.863Z,979.1
2023-01-17T10:38:03.832Z,979.1
2023-01-17T10:39:03.870Z,979.1
2023-01-17T10:40:03.872Z,979.1
2023-01-17T10:41:03.847Z,979.1
2023-01-17T10:42:03.875Z,979.1
2023-01-17T10:43:03.858Z,979.1
2023-01-17T10:44:03.843Z,979.1
2023-01-17T10:45:04.146Z,979.1
2023-01-17T10:47:38.873Z,979.1
2023-01-17T10:48:04.562Z,979.1
2023-01-17T10:49:05.888Z,979.1
2023-01-17T10:50:04.537Z,979.1
2023-01-17T10:51:04.571Z,979.1
2023-01-17T10:52:04.560Z,979.1
2023-01-17T10:53:04.564Z,979.1
2023-01-17T10:54:04.511Z,979.1
2023-01-17T10:55:04.537Z,979.1
2023-01-17T10:56:04.509Z,979.1
2023-01-17T10:57:04.546Z,979.1
2023-01-17T10:58:04.601Z,979.1
2023-01-17T10:59:04.582Z,979.1
2023-01-17T11:00:04.532Z,979.1
2023-01-17T11:01:04.623Z,979.0
2023-01-17T11:02:04.602Z,979.0
2023-01-17T11:03:04.595Z,979.0
2023-01-17T11:04:04.526Z,979.0
2023-01-17T11:05:04.557Z,979.0
2023-01-17T11:06:04.519Z,979.0
2023-01-17T11:07:04.566Z,979.0
2023-01-17T11:08:04.569Z,979.0
2023-01-17T11:09:04.555Z,978.9
2023-01-17T11:10:04.548Z,978.9
2023-01-17T11:11:04.546Z,979.0
2023-01-17T11:12:04.528Z,978.9
2023-01-17T11:13:04.513Z,978.9
2023-01-17T11:14:04.584Z,979.0
2023-01-17T11:15:04.544Z,979.0
2023-01-17T11:16:04.603Z,978.9
2023-01-17T11:17:04.552Z,978.8
2023-01-17T11:18:04.567Z,978.8
2023-01-17T11:19:04.597Z,978.8
2023-01-17T11:20:04.568Z,978.8
2023-01-17T11:21:04.569Z,978.8
2023-01-17T11:22:04.531Z,978.8
2023-01-17T11:23:04.548Z,978.8
2023-01-17T11:24:11.955Z,978.7
2023-01-17T11:25:03.986Z,978.7
2023-01-17T11:26:04.020Z,978.6
2023-01-17T11:27:04.020Z,978.6
2023-01-17T11:28:03.953Z,978.6
2023-01-17T11:29:04.010Z,978.6
2023-01-17T11:30:04.189Z,978.6
2023-01-17T11:31:04.063Z,978.6
2023-01-17T11:32:04.027Z,978.6
2023-01-17T11:33:04.020Z,978.6
2023-01-17T11:34:03.993Z,978.6
2023-01-17T11:35:04.010Z,978.6
2023-01-17T11:36:03.963Z,978.6
2023-01-17T11:37:04.034Z,978.6
2023-01-17T11:38:04.077Z,978.6
2023-01-17T11:39:03.990Z,978.5
2023-01-17T11:40:04.175Z,978.5
2023-01-17T11:41:04.002Z,978.5
2023-01-17T11:42:03.992Z,978.5
2023-01-17T11:43:04.035Z,978.4
2023-01-17T11:44:04.049Z,978.4
2023-01-17T11:45:04.011Z,978.4
2023-01-17T11:46:04.000Z,978.4
2023-01-17T11:47:03.954Z,978.4
2023-01-17T11:48:03.954Z,978.4
2023-01-17T11:49:03.968Z,978.3
2023-01-17T11:50:03.997Z,978.3
2023-01-17T11:51:03.966Z,978.3
2023-01-17T11:52:03.930Z,978.3
2023-01-17T11:53:03.963Z,978.3
2023-01-17T11:54:03.963Z,978.3
2023-01-17T11:55:03.960Z,978.3
2023-01-17T11:56:03.961Z,978.3
2023-01-17T11:57:04.003Z,978.3
2023-01-17T11:58:04.015Z,978.3
2023-01-17T11:59:03.949Z,978.3
2023-01-17T12:00:03.946Z,978.2
2023-01-17T12:01:04.076Z,978.2
2023-01-17T12:02:03.979Z,978.2
2023-01-17T12:03:03.966Z,978.2
2023-01-17T12:04:04.029Z,978.2
2023-01-17T12:05:04.031Z,978.2
2023-01-17T12:06:03.964Z,978.2
2023-01-17T12:07:03.983Z,978.2
2023-01-17T12:08:03.968Z,978.2
2023-01-17T12:09:04.011Z,978.2
2023-01-17T12:10:03.959Z,978.2
2023-01-17T12:11:03.957Z,978.2
2023-01-17T12:12:04.499Z,978.2
2023-01-17T12:13:04.026Z,978.1
2023-01-17T12:14:03.997Z,978.1
2023-01-17T12:15:03.990Z,978.1
2023-01-17T12:16:03.980Z,978.1
2023-01-17T12:17:03.964Z,978.1
2023-01-17T12:18:03.976Z,978.1
2023-01-17T12:19:04.001Z,978.0
2023-01-17T12:20:03.969Z,978.1
2023-01-17T12:21:04.137Z,978.0
2023-01-17T12:22:03.938Z,978.0
2023-01-17T12:23:03.994Z,978.0
2023-01-17T12:24:03.941Z,978.0
2023-01-17T12:25:04.039Z,978.0
2023-01-17T12:26:03.972Z,977.9
2023-01-17T12:27:04.002Z,977.9
2023-01-17T12:28:03.941Z,977.9
2023-01-17T12:29:03.971Z,977.8
2023-01-17T12:30:03.945Z,977.9
2023-01-17T12:31:03.980Z,977.8
2023-01-17T12:32:03.967Z,977.8
2023-01-17T12:33:03.973Z,977.8
2023-01-17T12:34:05.010Z,977.8
2023-01-17T12:35:03.984Z,977.7
2023-01-17T12:36:03.939Z,977.7
2023-01-17T12:37:03.993Z,977.7
2023-01-17T12:38:04.944Z,977.7
2023-01-17T12:39:04.004Z,977.7
2023-01-17T12:40:04.015Z,977.7
2023-01-17T12:41:03.987Z,977.7
2023-01-17T12:42:03.947Z,977.7
2023-01-17T12:43:04.919Z,977.7
2023-01-17T12:44:03.979Z,977.7
2023-01-17T12:45:04.040Z,977.7
2023-01-17T12:46:03.997Z,977.7
2023-01-17T12:47:04.028Z,977.7
2023-01-17T12:48:04.995Z,977.7
2023-01-17T12:49:47.400Z,977.6
2023-01-17T12:50:03.979Z,977.6
2023-01-17T12:51:04.009Z,977.6
2023-01-17T12:52:03.958Z,977.6
2023-01-17T12:53:03.977Z,977.6
2023-01-17T12:54:04.114Z,977.6
2023-01-17T12:55:04.049Z,977.6
2023-01-17T12:56:04.024Z,977.5
2023-01-17T12:57:03.984Z,977.5